createdAt,value
2019-02-26T00:00:58.982Z,1024.2
2019-02-26T00:02:02.884Z,1024.2
2019-02-26T00:03:05.093Z,1024.2
2019-02-26T00:04:07.219Z,1024.2
2019-02-26T00:05:09.335Z,1024.2
2019-02-26T00:06:11.434Z,1024.2
2019-02-26T00:07:18.380Z,1024.3
2019-02-26T00:08:33.857Z,1024.3
2019-02-26T00:09:35.989Z,1024.3
2019-02-26T00:10:39.361Z,1024.3
2019-02-26T00:11:41.457Z,1024.3
2019-02-26T00:12:43.572Z,1024.3
2019-02-26T00:13:45.695Z,1024.2
2019-02-26T00:15:02.724Z,1024.2
2019-02-26T00:16:10.433Z,1024.2
2019-02-26T00:17:22.265Z,1024.2
2019-02-26T00:18:24.658Z,1024.3
2019-02-26T00:19:26.761Z,1024.3
2019-02-26T00:20:33.699Z,1024.3
2019-02-26T00:21:47.448Z,1024.2
2019-02-26T00:22:59.633Z,1024.2
2019-02-26T00:24:12.320Z,1024.2
2019-02-26T00:25:20.703Z,1024.2
2019-02-26T00:26:23.111Z,1024.2
2019-02-26T00:27:30.426Z,1024.2
2019-02-26T00:28:41.537Z,1024.2
2019-02-26T00:29:51.394Z,1024.2
2019-02-26T00:31:01.557Z,1024.2
2019-02-26T00:32:11.623Z,1024.2
2019-02-26T00:33:25.042Z,1024.3
2019-02-26T00:34:34.571Z,1024.2
2019-02-26T00:35:46.358Z,1024.3
2019-02-26T00:36:51.987Z,1024.2
2019-02-26T00:37:56.060Z,1024.3
2019-02-26T00:39:00.605Z,1024.3
2019-02-26T00:40:12.272Z,1024.4
2019-02-26T00:41:26.733Z,1024.4
2019-02-26T00:42:37.117Z,1024.4
2019-02-26T00:43:39.247Z,1024.4
2019-02-26T00:44:41.351Z,1024.4
2019-02-26T00:45:43.851Z,1024.4
2019-02-26T00:46:45.979Z,1024.3
2019-02-26T00:47:48.095Z,1024.3
2019-02-26T00:48:50.256Z,1024.3
2019-02-26T00:49:53.758Z,1024.4
2019-02-26T00:50:59.301Z,1024.3
2019-02-26T00:52:08.631Z,1024.3
2019-02-26T00:53:23.500Z,1024.3
2019-02-26T00:54:36.618Z,1024.3
2019-02-26T00:55:39.955Z,1024.3
2019-02-26T00:56:42.090Z,1024.3
2019-02-26T00:57:44.187Z,1024.3
2019-02-26T00:58:50.370Z,1024.3
2019-02-26T00:59:52.563Z,1024.4
2019-02-26T01:00:54.693Z,1024.3
2019-02-26T01:01:59.363Z,1024.4
2019-02-26T01:03:05.879Z,1024.4
2019-02-26T01:04:16.724Z,1024.4
2019-02-26T01:05:18.816Z,1024.4
2019-02-26T01:06:24.575Z,1024.4
2019-02-26T01:07:34.869Z,1024.4
2019-02-26T01:08:40.704Z,1024.3
2019-02-26T01:09:52.295Z,1024.3
2019-02-26T01:11:03.846Z,1024.3
2019-02-26T01:12:15.978Z,1024.2
2019-02-26T01:13:24.921Z,1024.2
2019-02-26T01:14:33.779Z,1024.2
2019-02-26T01:15:36.180Z,1024.2
2019-02-26T01:16:41.930Z,1024.2
2019-02-26T01:17:49.948Z,1024.2
2019-02-26T01:18:53.459Z,1024.3
2019-02-26T01:20:00.840Z,1024.3
2019-02-26T01:21:07.467Z,1024.2
2019-02-26T01:22:09.593Z,1024.3
2019-02-26T01:23:11.688Z,1024.2
2019-02-26T01:24:13.804Z,1024.3
2019-02-26T01:25:20.857Z,1024.3
2019-02-26T01:26:28.019Z,1024.2
2019-02-26T01:27:30.408Z,1024.2
2019-02-26T01:28:32.535Z,1024.2
2019-02-26T01:29:34.647Z,1024.2
2019-02-26T01:30:36.755Z,1024.2
2019-02-26T01:31:39.276Z,1024.3
2019-02-26T01:32:41.384Z,1024.3
2019-02-26T01:33:43.501Z,1024.2
2019-02-26T01:34:52.314Z,1024.3
2019-02-26T01:35:57.977Z,1024.2
2019-02-26T01:37:09.869Z,1024.2
2019-02-26T01:38:16.562Z,1024.2
2019-02-26T01:39:25.607Z,1024.2
2019-02-26T01:40:27.713Z,1024.1
2019-02-26T01:41:29.833Z,1024.1
2019-02-26T01:42:32.232Z,1024.1
2019-02-26T01:43:34.360Z,1024.1
2019-02-26T01:44:42.017Z,1024
2019-02-26T01:45:50.735Z,1024
2019-02-26T01:47:02.074Z,1024
2019-02-26T01:48:11.167Z,1024
2019-02-26T01:49:23.660Z,1024
2019-02-26T01:50:33.351Z,1023.9
2019-02-26T01:51:45.539Z,1023.9
2019-02-26T01:53:00.487Z,1023.9
2019-02-26T01:54:05.176Z,1023.9
2019-02-26T01:55:21.069Z,1023.8
2019-02-26T01:56:29.692Z,1023.8
2019-02-26T01:57:31.810Z,1023.8
2019-02-26T01:58:34.329Z,1023.8
2019-02-26T01:59:36.456Z,1023.7
2019-02-26T02:00:41.259Z,1023.8
2019-02-26T02:01:47.096Z,1023.8
2019-02-26T02:02:57.488Z,1023.9
2019-02-26T02:03:59.616Z,1023.8
2019-02-26T02:05:05.280Z,1023.8
2019-02-26T02:06:15.870Z,1023.8
2019-02-26T02:07:24.110Z,1023.9
2019-02-26T02:08:32.285Z,1023.8
2019-02-26T02:09:34.686Z,1023.8
2019-02-26T02:10:36.795Z,1023.8
2019-02-26T02:11:41.041Z,1023.8
2019-02-26T02:12:43.422Z,1023.9
2019-02-26T02:13:45.826Z,1023.9
2019-02-26T02:14:47.952Z,1023.9
2019-02-26T02:15:50.044Z,1024
2019-02-26T02:16:52.162Z,1024
2019-02-26T02:17:57.752Z,1024
2019-02-26T02:19:07.686Z,1024
2019-02-26T02:20:15.662Z,1023.9
2019-02-26T02:21:28.344Z,1024
2019-02-26T02:22:40.322Z,1024
2019-02-26T02:23:49.056Z,1024
2019-02-26T02:24:55.951Z,1024
2019-02-26T02:26:04.364Z,1024.1
2019-02-26T02:27:22.133Z,1024.1
2019-02-26T02:28:36.204Z,1024.1
2019-02-26T02:29:44.155Z,1024.2
2019-02-26T02:30:58.988Z,1024.2
2019-02-26T02:32:07.154Z,1024.2
2019-02-26T02:33:09.755Z,1024.1
2019-02-26T02:34:11.893Z,1024.1
2019-02-26T02:35:19.564Z,1024.1
2019-02-26T02:36:26.558Z,1024.1
2019-02-26T02:37:31.927Z,1024.1
2019-02-26T02:38:37.249Z,1024
2019-02-26T02:39:39.778Z,1024
2019-02-26T02:40:46.270Z,1024
2019-02-26T02:41:56.528Z,1024
2019-02-26T02:43:07.910Z,1023.9
2019-02-26T02:44:25.895Z,1023.9
2019-02-26T02:45:28.028Z,1023.9
2019-02-26T02:46:30.435Z,1023.9
2019-02-26T02:47:38.343Z,1023.8
2019-02-26T02:48:40.876Z,1023.9
2019-02-26T02:49:44.643Z,1024
2019-02-26T02:50:47.455Z,1023.9
2019-02-26T02:51:49.607Z,1023.9
2019-02-26T02:52:56.578Z,1023.9
2019-02-26T02:54:05.854Z,1023.9
2019-02-26T02:55:13.773Z,1023.9
2019-02-26T02:56:21.921Z,1023.9
2019-02-26T02:57:29.412Z,1023.9
2019-02-26T02:58:40.914Z,1023.9
2019-02-26T02:59:59.487Z,1023.8
2019-02-26T03:01:10.444Z,1023.8
2019-02-26T03:02:24.011Z,1023.8
2019-02-26T03:03:26.125Z,1023.9
2019-02-26T03:04:34.568Z,1023.9
2019-02-26T03:05:43.191Z,1023.9
2019-02-26T03:06:50.060Z,1023.9
2019-02-26T03:08:04.335Z,1024
2019-02-26T03:09:11.553Z,1024
2019-02-26T03:10:25.965Z,1024
2019-02-26T03:11:49.565Z,1023.9
2019-02-26T03:13:01.016Z,1024
2019-02-26T03:14:10.781Z,1024
2019-02-26T03:15:26.079Z,1024
2019-02-26T03:16:45.002Z,1024.1
2019-02-26T03:17:55.082Z,1024
2019-02-26T03:18:57.206Z,1024
2019-02-26T03:20:04.821Z,1023.9
2019-02-26T03:21:11.880Z,1023.9
2019-02-26T03:22:20.865Z,1024
2019-02-26T03:23:24.097Z,1023.9
2019-02-26T03:24:33.184Z,1023.9
2019-02-26T03:25:37.898Z,1023.9
2019-02-26T03:26:40.001Z,1023.9
2019-02-26T03:27:42.901Z,1024
2019-02-26T03:28:51.318Z,1023.9
2019-02-26T03:30:01.648Z,1023.9
2019-02-26T03:31:04.809Z,1023.9
2019-02-26T03:32:07.287Z,1024
2019-02-26T03:33:10.184Z,1024
2019-02-26T03:34:24.910Z,1024
2019-02-26T03:35:29.053Z,1024
2019-02-26T03:36:34.110Z,1023.9
2019-02-26T03:37:52.215Z,1023.9
2019-02-26T03:39:05.439Z,1023.9
2019-02-26T03:40:08.794Z,1024
2019-02-26T03:41:10.901Z,1023.9
2019-02-26T03:42:18.552Z,1024
2019-02-26T03:43:23.077Z,1024
2019-02-26T03:44:30.424Z,1023.9
2019-02-26T03:45:33.284Z,1023.9
2019-02-26T03:46:35.385Z,1024
2019-02-26T03:47:40.811Z,1024
2019-02-26T03:48:42.932Z,1024.1
2019-02-26T03:49:45.063Z,1024.1
2019-02-26T03:50:47.174Z,1024.1
2019-02-26T03:51:49.294Z,1024.1
2019-02-26T03:52:51.412Z,1024.2
2019-02-26T03:53:53.534Z,1024.2
2019-02-26T03:54:55.921Z,1024.2
2019-02-26T03:56:04.429Z,1024.2
2019-02-26T03:57:24.835Z,1024.1
2019-02-26T03:58:27.333Z,1024
2019-02-26T03:59:29.449Z,1024
2019-02-26T04:00:35.575Z,1024.1
2019-02-26T04:01:48.702Z,1024.1
2019-02-26T04:02:52.297Z,1024.1
2019-02-26T04:03:59.538Z,1024.1
2019-02-26T04:05:09.400Z,1024
2019-02-26T04:06:12.461Z,1024
2019-02-26T04:07:14.588Z,1024
2019-02-26T04:08:21.870Z,1024
2019-02-26T04:09:31.829Z,1024
2019-02-26T04:10:33.950Z,1024
2019-02-26T04:11:36.063Z,1024
2019-02-26T04:12:55.140Z,1024.1
2019-02-26T04:14:00.135Z,1024.1
2019-02-26T04:15:02.943Z,1024.1
2019-02-26T04:16:05.644Z,1024.1
2019-02-26T04:17:09.355Z,1024.1
2019-02-26T04:18:11.465Z,1024.1
2019-02-26T04:19:13.588Z,1024.1
2019-02-26T04:20:15.729Z,1024.1
2019-02-26T04:21:21.416Z,1024
2019-02-26T04:22:26.621Z,1024
2019-02-26T04:23:29.406Z,1024
2019-02-26T04:24:37.968Z,1024
2019-02-26T04:25:40.789Z,1024.1
2019-02-26T04:26:43.601Z,1024.1
2019-02-26T04:27:45.725Z,1024.1
2019-02-26T04:28:47.873Z,1024.1
2019-02-26T04:29:49.988Z,1024.1
2019-02-26T04:30:52.748Z,1024
2019-02-26T04:31:57.893Z,1024
2019-02-26T04:33:04.614Z,1023.9
2019-02-26T04:34:16.073Z,1023.9
2019-02-26T04:35:18.202Z,1023.9
2019-02-26T04:36:22.501Z,1024
2019-02-26T04:37:30.063Z,1024
2019-02-26T04:38:40.113Z,1024.1
2019-02-26T04:39:47.929Z,1024.1
2019-02-26T04:40:50.048Z,1024.1
2019-02-26T04:42:09.200Z,1024.1
2019-02-26T04:43:22.015Z,1024.1
2019-02-26T04:44:31.243Z,1024
2019-02-26T04:45:36.564Z,1024
2019-02-26T04:46:39.850Z,1024
2019-02-26T04:47:41.974Z,1024
2019-02-26T04:48:46.590Z,1024
2019-02-26T04:49:48.712Z,1024
2019-02-26T04:50:51.704Z,1023.9
2019-02-26T04:51:53.851Z,1023.8
2019-02-26T04:53:02.732Z,1023.9
2019-02-26T04:54:23.770Z,1024
2019-02-26T04:55:44.849Z,1024
2019-02-26T04:56:50.940Z,1023.9
2019-02-26T04:57:54.411Z,1023.9
2019-02-26T04:58:56.919Z,1023.9
2019-02-26T05:00:04.480Z,1023.8
2019-02-26T05:01:16.439Z,1023.8
2019-02-26T05:02:21.503Z,1023.9
2019-02-26T05:03:23.618Z,1023.9
2019-02-26T05:04:30.465Z,1023.9
2019-02-26T05:05:43.937Z,1023.9
2019-02-26T05:06:46.447Z,1023.8
2019-02-26T05:07:50.312Z,1023.8
2019-02-26T05:08:52.469Z,1023.7
2019-02-26T05:10:06.595Z,1023.7
2019-02-26T05:11:09.084Z,1023.7
2019-02-26T05:12:41.648Z,1023.7
2019-02-26T05:13:43.782Z,1023.8
2019-02-26T05:14:46.223Z,1023.7
2019-02-26T05:15:48.382Z,1023.7
2019-02-26T05:16:50.504Z,1023.7
2019-02-26T05:17:52.602Z,1023.7
2019-02-26T05:18:58.605Z,1023.6
2019-02-26T05:20:06.244Z,1023.6
2019-02-26T05:21:20.697Z,1023.5
2019-02-26T05:22:30.203Z,1023.5
2019-02-26T05:23:35.375Z,1023.6
2019-02-26T05:24:44.260Z,1023.5
2019-02-26T05:25:59.686Z,1023.5
2019-02-26T05:27:24.895Z,1023.6
2019-02-26T05:28:27.172Z,1023.6
2019-02-26T05:29:54.788Z,1023.5
2019-02-26T05:30:56.997Z,1023.5
2019-02-26T05:32:04.075Z,1023.6
2019-02-26T05:33:11.363Z,1023.5
2019-02-26T05:34:17.959Z,1023.5
2019-02-26T05:35:27.819Z,1023.5
2019-02-26T05:36:36.723Z,1023.5
2019-02-26T05:37:48.027Z,1023.5
2019-02-26T05:38:57.014Z,1023.6
2019-02-26T05:40:06.490Z,1023.6
2019-02-26T05:41:23.637Z,1023.5
2019-02-26T05:42:26.141Z,1023.5
2019-02-26T05:43:33.878Z,1023.6
2019-02-26T05:44:36.158Z,1023.5
2019-02-26T05:45:38.320Z,1023.6
2019-02-26T05:46:40.421Z,1023.6
2019-02-26T05:47:45.897Z,1023.6
2019-02-26T05:49:00.377Z,1023.6
2019-02-26T05:50:17.373Z,1023.6
2019-02-26T05:51:20.105Z,1023.6
2019-02-26T05:52:27.217Z,1023.6
2019-02-26T05:53:37.758Z,1023.5
2019-02-26T05:54:39.864Z,1023.5
2019-02-26T05:55:48.430Z,1023.5
2019-02-26T05:56:57.995Z,1023.5
2019-02-26T05:58:09.868Z,1023.6
2019-02-26T05:59:23.563Z,1023.6
2019-02-26T06:00:33.221Z,1023.6
2019-02-26T06:01:35.493Z,1023.6
2019-02-26T06:02:44.308Z,1023.6
2019-02-26T06:03:52.784Z,1023.6
2019-02-26T06:04:55.170Z,1023.5
2019-02-26T06:06:00.560Z,1023.6
2019-02-26T06:07:04.977Z,1023.5
2019-02-26T06:08:07.380Z,1023.5
2019-02-26T06:09:09.923Z,1023.5
2019-02-26T06:10:12.038Z,1023.5
2019-02-26T06:11:16.964Z,1023.5
2019-02-26T06:12:19.185Z,1023.6
2019-02-26T06:13:22.003Z,1023.6
2019-02-26T06:14:27.532Z,1023.6
2019-02-26T06:15:40.791Z,1023.6
2019-02-26T06:16:46.336Z,1023.7
2019-02-26T06:17:57.547Z,1023.6
2019-02-26T06:18:59.963Z,1023.7
2019-02-26T06:20:07.863Z,1023.6
2019-02-26T06:21:18.911Z,1023.6
2019-02-26T06:22:31.951Z,1023.6
2019-02-26T06:23:39.301Z,1023.6
2019-02-26T06:24:44.530Z,1023.6
2019-02-26T06:25:47.334Z,1023.6
2019-02-26T06:26:49.474Z,1023.7
2019-02-26T06:27:51.580Z,1023.7
2019-02-26T06:28:54.442Z,1023.7
2019-02-26T06:30:03.155Z,1023.6
2019-02-26T06:31:19.366Z,1023.6
2019-02-26T06:32:32.750Z,1023.5
2019-02-26T06:33:48.035Z,1023.6
2019-02-26T06:34:52.523Z,1023.5
2019-02-26T06:35:57.818Z,1023.5
2019-02-26T06:37:11.648Z,1023.6
2019-02-26T06:38:18.552Z,1023.5
2019-02-26T06:39:26.726Z,1023.5
2019-02-26T06:40:41.901Z,1023.4
2019-02-26T06:41:53.274Z,1023.4
2019-02-26T06:42:55.390Z,1023.5
2019-02-26T06:43:57.514Z,1023.4
2019-02-26T06:44:59.610Z,1023.4
2019-02-26T06:46:09.673Z,1023.4
2019-02-26T06:47:15.974Z,1023.5
2019-02-26T06:48:24.938Z,1023.5
2019-02-26T06:49:33.876Z,1023.5
2019-02-26T06:50:39.248Z,1023.5
2019-02-26T06:51:49.636Z,1023.5
2019-02-26T06:52:55.941Z,1023.6
2019-02-26T06:54:01.155Z,1023.6
2019-02-26T06:55:07.798Z,1023.5
2019-02-26T06:56:09.970Z,1023.6
2019-02-26T06:57:12.082Z,1023.5
2019-02-26T06:58:14.244Z,1023.6
2019-02-26T06:59:16.335Z,1023.6
2019-02-26T07:00:23.876Z,1023.6
2019-02-26T07:01:35.193Z,1023.5
2019-02-26T07:02:46.487Z,1023.5
2019-02-26T07:03:48.639Z,1023.5
2019-02-26T07:04:50.755Z,1023.5
2019-02-26T07:05:53.226Z,1023.5
2019-02-26T07:06:59.322Z,1023.6
2019-02-26T07:08:16.012Z,1023.6
2019-02-26T07:09:20.765Z,1023.6
2019-02-26T07:10:28.715Z,1023.6
2019-02-26T07:11:38.382Z,1023.6
2019-02-26T07:12:43.531Z,1023.5
2019-02-26T07:13:54.050Z,1023.5
2019-02-26T07:14:58.344Z,1023.6
2019-02-26T07:16:04.531Z,1023.6
2019-02-26T07:17:07.680Z,1023.6
2019-02-26T07:18:17.500Z,1023.6
2019-02-26T07:19:22.082Z,1023.6
2019-02-26T07:20:35.304Z,1023.6
2019-02-26T07:21:59.236Z,1023.6
2019-02-26T07:23:01.359Z,1023.6
2019-02-26T07:24:22.481Z,1023.5
2019-02-26T07:25:28.935Z,1023.5
2019-02-26T07:26:46.403Z,1023.6
2019-02-26T07:27:54.188Z,1023.6
2019-02-26T07:29:08.675Z,1023.5
2019-02-26T07:30:19.492Z,1023.5
2019-02-26T07:31:21.632Z,1023.5
2019-02-26T07:32:40.620Z,1023.6
2019-02-26T07:33:53.824Z,1023.6
2019-02-26T07:35:09.119Z,1023.5
2019-02-26T07:36:23.678Z,1023.6
2019-02-26T07:37:34.055Z,1023.6
2019-02-26T07:38:49.052Z,1023.6
2019-02-26T07:39:58.384Z,1023.6
2019-02-26T07:41:05.626Z,1023.7
2019-02-26T07:42:12.273Z,1023.6
2019-02-26T07:43:22.856Z,1023.6
2019-02-26T07:44:28.522Z,1023.6
2019-02-26T07:45:32.522Z,1023.6
2019-02-26T07:46:38.371Z,1023.6
2019-02-26T07:47:48.386Z,1023.6
2019-02-26T07:49:07.400Z,1023.7
2019-02-26T07:50:14.530Z,1023.6
2019-02-26T07:51:19.587Z,1023.6
2019-02-26T07:52:26.588Z,1023.6
2019-02-26T07:53:34.696Z,1023.6
2019-02-26T07:54:42.189Z,1023.6
2019-02-26T07:55:53.174Z,1023.6
2019-02-26T07:57:02.584Z,1023.5
2019-02-26T07:58:09.094Z,1023.6
2019-02-26T07:59:28.998Z,1023.5
2019-02-26T08:00:52.146Z,1023.5
2019-02-26T08:01:54.415Z,1023.5
2019-02-26T08:03:00.104Z,1023.5
2019-02-26T08:04:11.534Z,1023.4
2019-02-26T08:05:24.221Z,1023.4
2019-02-26T08:06:34.269Z,1023.4
2019-02-26T08:07:40.303Z,1023.4
2019-02-26T08:08:46.589Z,1023.4
2019-02-26T08:09:50.857Z,1023.4
2019-02-26T08:10:53.521Z,1023.3
2019-02-26T08:11:55.952Z,1023.4
2019-02-26T08:13:03.261Z,1023.4
2019-02-26T08:14:09.668Z,1023.5
2019-02-26T08:15:15.547Z,1023.5
2019-02-26T08:16:21.227Z,1023.5
2019-02-26T08:17:31.607Z,1023.5
2019-02-26T08:18:33.739Z,1023.5
2019-02-26T08:19:41.722Z,1023.6
2019-02-26T08:20:56.909Z,1023.6
2019-02-26T08:22:06.597Z,1023.7
2019-02-26T08:23:08.727Z,1023.8
2019-02-26T08:24:14.840Z,1023.8
2019-02-26T08:25:26.462Z,1023.9
2019-02-26T08:26:29.443Z,1023.9
2019-02-26T08:27:35.566Z,1023.9
2019-02-26T08:28:44.078Z,1023.9
2019-02-26T08:29:54.562Z,1023.9
2019-02-26T08:31:05.367Z,1023.9
2019-02-26T08:32:07.624Z,1023.8
2019-02-26T08:33:09.789Z,1023.8
2019-02-26T08:34:15.820Z,1023.8
2019-02-26T08:35:19.168Z,1023.8
2019-02-26T08:36:21.290Z,1023.8
2019-02-26T08:37:23.421Z,1023.7
2019-02-26T08:38:30.215Z,1023.7
2019-02-26T08:39:32.804Z,1023.7
2019-02-26T08:40:40.526Z,1023.7
2019-02-26T08:41:42.663Z,1023.7
2019-02-26T08:42:44.782Z,1023.6
2019-02-26T08:43:51.506Z,1023.7
2019-02-26T08:45:00.489Z,1023.6
2019-02-26T08:46:02.951Z,1023.6
2019-02-26T08:47:11.852Z,1023.6
2019-02-26T08:48:27.305Z,1023.7
2019-02-26T08:49:29.697Z,1023.7
2019-02-26T08:50:36.145Z,1023.7
2019-02-26T08:51:47.732Z,1023.7
2019-02-26T08:52:55.458Z,1023.7
2019-02-26T08:54:00.557Z,1023.7
2019-02-26T08:55:02.700Z,1023.7
2019-02-26T08:56:05.242Z,1023.7
2019-02-26T08:57:12.008Z,1023.7
2019-02-26T08:58:14.205Z,1023.7
2019-02-26T08:59:20.111Z,1023.7
2019-02-26T09:00:22.299Z,1023.7
2019-02-26T09:01:24.433Z,1023.7
2019-02-26T09:02:26.556Z,1023.7
2019-02-26T09:03:28.947Z,1023.8
2019-02-26T09:04:31.098Z,1023.8
2019-02-26T09:05:36.784Z,1023.8
2019-02-26T09:06:39.006Z,1023.8
2019-02-26T09:07:45.507Z,1023.8
2019-02-26T09:08:52.840Z,1023.8
2019-02-26T09:10:09.801Z,1023.8
2019-02-26T09:11:28.622Z,1023.8
2019-02-26T09:12:45.918Z,1023.7
2019-02-26T09:13:56.265Z,1023.7
2019-02-26T09:15:17.756Z,1023.6
2019-02-26T09:16:25.120Z,1023.7
2019-02-26T09:17:37.072Z,1023.6
2019-02-26T09:18:44.170Z,1023.7
2019-02-26T09:19:46.292Z,1023.8
2019-02-26T09:20:48.414Z,1023.8
2019-02-26T09:21:54.605Z,1023.9
2019-02-26T09:23:01.451Z,1023.9
2019-02-26T09:24:07.851Z,1023.9
2019-02-26T09:25:10.604Z,1024
2019-02-26T09:26:12.768Z,1024.1
2019-02-26T09:27:14.921Z,1024.1
2019-02-26T09:28:17.033Z,1024.1
2019-02-26T09:29:22.539Z,1024.1
2019-02-26T09:30:24.965Z,1024.1
2019-02-26T09:31:32.840Z,1024.1
2019-02-26T09:32:37.840Z,1024.2
2019-02-26T09:33:46.889Z,1024.2
2019-02-26T09:34:49.005Z,1024.2
2019-02-26T09:35:57.023Z,1024.2
2019-02-26T09:37:03.464Z,1024.2
2019-02-26T09:38:09.853Z,1024.1
2019-02-26T09:39:31.786Z,1024.1
2019-02-26T09:40:40.631Z,1024.1
2019-02-26T09:41:45.776Z,1024.1
2019-02-26T09:42:55.024Z,1024.2
2019-02-26T09:44:08.958Z,1024.2
2019-02-26T09:45:17.761Z,1024.2
2019-02-26T09:46:36.285Z,1024.2
2019-02-26T09:47:49.695Z,1024.2
2019-02-26T09:49:09.778Z,1024.3
2019-02-26T09:50:19.887Z,1024.3
2019-02-26T09:51:24.887Z,1024.3
2019-02-26T09:52:32.668Z,1024.3
2019-02-26T09:53:34.898Z,1024.3
2019-02-26T09:54:42.830Z,1024.3
2019-02-26T09:55:56.510Z,1024.3
2019-02-26T09:56:58.655Z,1024.3
2019-02-26T09:58:02.850Z,1024.3
2019-02-26T09:59:09.626Z,1024.3
2019-02-26T10:00:22.750Z,1024.3
2019-02-26T10:01:35.417Z,1024.3
2019-02-26T10:02:47.479Z,1024.4
2019-02-26T10:03:58.244Z,1024.4
2019-02-26T10:05:11.170Z,1024.4
2019-02-26T10:06:23.656Z,1024.4
2019-02-26T10:07:28.483Z,1024.4
2019-02-26T10:08:40.195Z,1024.4
2019-02-26T10:09:48.411Z,1024.4
2019-02-26T10:10:54.923Z,1024.4
2019-02-26T10:12:12.318Z,1024.5
2019-02-26T10:13:21.102Z,1024.4
2019-02-26T10:14:33.441Z,1024.3
2019-02-26T10:15:44.794Z,1024.4
2019-02-26T10:16:51.414Z,1024.4
2019-02-26T10:18:04.012Z,1024.4
2019-02-26T10:19:15.257Z,1024.4
2019-02-26T10:20:28.555Z,1024.4
2019-02-26T10:21:38.008Z,1024.4
2019-02-26T10:22:46.422Z,1024.4
2019-02-26T10:23:53.939Z,1024.4
2019-02-26T10:25:05.927Z,1024.3
2019-02-26T10:26:10.896Z,1024.4
2019-02-26T10:27:16.420Z,1024.3
2019-02-26T10:28:22.409Z,1024.3
2019-02-26T10:29:24.558Z,1024.3
2019-02-26T10:30:32.876Z,1024.3
2019-02-26T10:31:43.375Z,1024.3
2019-02-26T10:32:47.153Z,1024.3
2019-02-26T10:33:51.091Z,1024.2
2019-02-26T10:34:53.521Z,1024.2
2019-02-26T10:35:55.663Z,1024.2
2019-02-26T10:36:58.071Z,1024.2
2019-02-26T10:38:06.170Z,1024.2
2019-02-26T10:39:18.545Z,1024.2
2019-02-26T10:40:50.101Z,1024.2
2019-02-26T10:42:03.337Z,1024.2
2019-02-26T10:43:05.472Z,1024.2
2019-02-26T10:44:07.884Z,1024.3
2019-02-26T10:45:10.611Z,1024.3
2019-02-26T10:46:12.754Z,1024.3
2019-02-26T10:47:15.274Z,1024.3
2019-02-26T10:48:24.504Z,1024.3
2019-02-26T10:49:30.258Z,1024.3
2019-02-26T10:50:32.493Z,1024.3
2019-02-26T10:51:34.989Z,1024.4
2019-02-26T10:52:37.141Z,1024.3
2019-02-26T10:53:39.575Z,1024.4
2019-02-26T10:54:46.534Z,1024.4
2019-02-26T10:55:49.067Z,1024.4
2019-02-26T10:56:52.189Z,1024.4
2019-02-26T10:57:58.526Z,1024.5
2019-02-26T10:59:19.475Z,1024.5
2019-02-26T11:00:31.063Z,1024.5
2019-02-26T11:01:40.704Z,1024.5
2019-02-26T11:02:46.488Z,1024.4
2019-02-26T11:03:56.274Z,1024.5
2019-02-26T11:04:59.081Z,1024.4
2019-02-26T11:06:04.585Z,1024.4
2019-02-26T11:07:20.923Z,1024.4
2019-02-26T11:08:29.522Z,1024.3
2019-02-26T11:09:37.509Z,1024.3
2019-02-26T11:10:44.830Z,1024.3
2019-02-26T11:11:58.396Z,1024.3
2019-02-26T11:13:15.585Z,1024.3
2019-02-26T11:14:27.858Z,1024.3
2019-02-26T11:15:40.171Z,1024.3
2019-02-26T11:16:42.327Z,1024.3
2019-02-26T11:17:47.934Z,1024.3
2019-02-26T11:19:01.835Z,1024.3
2019-02-26T11:20:14.176Z,1024.3
2019-02-26T11:21:16.590Z,1024.3
2019-02-26T11:22:23.347Z,1024.2
2019-02-26T11:23:33.941Z,1024.2
2019-02-26T11:24:51.216Z,1024.2
2019-02-26T11:26:07.293Z,1024.2
2019-02-26T11:27:20.273Z,1024.2
2019-02-26T11:28:22.429Z,1024.2
2019-02-26T11:29:46.549Z,1024.1
2019-02-26T11:30:54.128Z,1024.1
2019-02-26T11:31:58.645Z,1024.1
2019-02-26T11:33:15.570Z,1024.1
2019-02-26T11:34:17.890Z,1024.1
2019-02-26T11:35:24.523Z,1024.1
2019-02-26T11:36:35.902Z,1024.1
2019-02-26T11:37:47.150Z,1024
2019-02-26T11:39:04.839Z,1024.1
2019-02-26T11:40:14.038Z,1024
2019-02-26T11:41:21.377Z,1024
2019-02-26T11:42:36.889Z,1024
2019-02-26T11:43:40.946Z,1024
2019-02-26T11:44:43.644Z,1024.1
2019-02-26T11:45:45.784Z,1024
2019-02-26T11:46:53.710Z,1024
2019-02-26T11:48:04.313Z,1024.1
2019-02-26T11:49:14.787Z,1024
2019-02-26T11:50:28.366Z,1024.1
2019-02-26T11:51:41.555Z,1024.1
2019-02-26T11:52:44.508Z,1024.1
2019-02-26T11:53:46.654Z,1024.1
2019-02-26T11:54:48.774Z,1024.1
2019-02-26T11:55:54.926Z,1024.2
2019-02-26T11:57:10.275Z,1024.2
2019-02-26T11:58:24.061Z,1024.1
2019-02-26T11:59:30.971Z,1024.2
2019-02-26T12:00:50.198Z,1024.1
2019-02-26T12:01:57.007Z,1024.1
2019-02-26T12:03:07.808Z,1024
2019-02-26T12:04:16.986Z,1024
2019-02-26T12:05:19.277Z,1024
2019-02-26T12:06:21.690Z,1024
2019-02-26T12:07:27.996Z,1024
2019-02-26T12:08:40.493Z,1023.9
2019-02-26T12:09:51.538Z,1023.9
2019-02-26T12:14:04.251Z,1023.8
2019-02-26T12:15:09.961Z,1023.8
2019-02-26T12:16:17.252Z,1023.8
2019-02-26T12:17:19.650Z,1023.8
2019-02-26T12:18:22.757Z,1023.8
2019-02-26T12:19:28.303Z,1023.7
2019-02-26T12:20:43.522Z,1023.8
2019-02-26T12:21:55.056Z,1023.8
2019-02-26T12:23:10.620Z,1023.8
2019-02-26T12:26:27.384Z,1023.7
2019-02-26T12:27:32.083Z,1023.7
2019-02-26T12:28:40.347Z,1023.7
2019-02-26T12:29:47.829Z,1023.7
2019-02-26T12:31:01.225Z,1023.8
2019-02-26T12:32:14.280Z,1023.8
2019-02-26T12:33:25.343Z,1023.8
2019-02-26T12:34:27.882Z,1023.7
2019-02-26T12:35:35.720Z,1023.7
2019-02-26T12:36:45.260Z,1023.6
2019-02-26T12:38:21.357Z,1023.6
2019-02-26T12:39:28.841Z,1023.6
2019-02-26T12:40:33.416Z,1023.6
2019-02-26T12:41:45.200Z,1023.6
2019-02-26T12:42:50.079Z,1023.6
2019-02-26T12:43:52.214Z,1023.7
2019-02-26T12:45:00.952Z,1023.7
2019-02-26T12:46:15.189Z,1023.7
2019-02-26T12:47:24.125Z,1023.6
2019-02-26T12:48:29.900Z,1023.6
2019-02-26T12:49:38.379Z,1023.7
2019-02-26T12:50:46.863Z,1023.5
2019-02-26T12:51:53.871Z,1023.6
2019-02-26T12:53:05.191Z,1023.7
2019-02-26T12:56:13.377Z,1023.6
2019-02-26T12:57:19.854Z,1023.6
2019-02-26T12:58:33.175Z,1023.6
2019-02-26T12:59:35.322Z,1023.6
2019-02-26T13:00:42.260Z,1023.5
2019-02-26T13:01:49.174Z,1023.5
2019-02-26T13:02:53.939Z,1023.4
2019-02-26T13:03:56.443Z,1023.4
2019-02-26T13:04:58.592Z,1023.4
2019-02-26T13:06:01.019Z,1023.4
2019-02-26T13:07:11.132Z,1023.3
2019-02-26T13:08:19.569Z,1023.4
2019-02-26T13:09:27.138Z,1023.4
2019-02-26T13:10:29.566Z,1023.4
2019-02-26T13:11:31.691Z,1023.3
2019-02-26T13:12:34.123Z,1023.4
2019-02-26T13:13:36.327Z,1023.4
2019-02-26T13:14:38.459Z,1023.3
2019-02-26T13:15:40.601Z,1023.3
2019-02-26T13:16:48.603Z,1023.4
2019-02-26T13:18:01.709Z,1023.4
2019-02-26T13:19:05.085Z,1023.3
2019-02-26T13:20:11.399Z,1023.3
2019-02-26T13:21:17.406Z,1023.3
2019-02-26T13:22:20.573Z,1023.3
2019-02-26T13:23:22.710Z,1023.3
2019-02-26T13:26:26.468Z,1023.2
2019-02-26T13:27:28.635Z,1023.1
2019-02-26T13:28:31.783Z,1023.2
2019-02-26T13:29:33.943Z,1023.1
2019-02-26T13:30:36.482Z,1023.1
2019-02-26T13:31:56.176Z,1023.1
2019-02-26T13:33:11.194Z,1023.1
2019-02-26T13:34:14.630Z,1023.1
2019-02-26T13:35:17.368Z,1023
2019-02-26T13:36:20.447Z,1023
2019-02-26T13:37:31.460Z,1023
2019-02-26T13:38:49.275Z,1023
2019-02-26T13:39:51.540Z,1023
2019-02-26T13:41:28.676Z,1023
2019-02-26T13:42:40.818Z,1023
2019-02-26T13:43:44.072Z,1023.1
2019-02-26T13:44:46.215Z,1023
2019-02-26T13:45:48.652Z,1023
2019-02-26T13:46:50.779Z,1023
2019-02-26T13:48:01.709Z,1023
2019-02-26T13:49:04.097Z,1023
2019-02-26T13:50:06.226Z,1023
2019-02-26T13:51:08.370Z,1023
2019-02-26T13:52:10.502Z,1023
2019-02-26T13:53:12.627Z,1023
2019-02-26T13:54:14.768Z,1023
2019-02-26T13:55:17.215Z,1023
2019-02-26T13:56:20.145Z,1023
2019-02-26T13:57:22.522Z,1023
2019-02-26T13:58:25.138Z,1023
2019-02-26T13:59:27.444Z,1023
2019-02-26T14:00:29.607Z,1023.1
2019-02-26T14:01:31.787Z,1023.1
2019-02-26T14:02:33.929Z,1023
2019-02-26T14:03:36.085Z,1023
2019-02-26T14:04:38.248Z,1023
2019-02-26T14:05:40.394Z,1023
2019-02-26T14:06:42.576Z,1023
2019-02-26T14:07:45.292Z,1022.9
2019-02-26T14:08:47.432Z,1023
2019-02-26T14:09:49.862Z,1023
2019-02-26T14:10:52.538Z,1022.9
2019-02-26T14:11:55.903Z,1022.9
2019-02-26T14:12:58.466Z,1022.9
2019-02-26T14:14:00.640Z,1022.9
2019-02-26T14:15:04.074Z,1022.9
2019-02-26T14:16:06.211Z,1022.9
2019-02-26T14:17:08.358Z,1022.9